Pellston, MI (49769)

10:48 PM EDT on August 31, 2015 (GMT -0400)
Creekside, 4 Miles WSW Bliss | | Change Station
CLOSE
Current Station
Personal Weather Station
Location: Bliss Township, MI
Elevation: 708 ft
Nearby Weather Stations

Elev 708 ft 45.65 °N, 84.92 °W | Updated 16 seconds ago

Clear
Clear
60.2 °F
Feels Like 60.2 °F
N
0.0
Wind Variable Wind from West
Gusts 2.0 mph

Today
High -- | Low -- °F
--% Chance of Precip.
Yesterday
High -- | Low -- °F
Precip. -- in
6:59 AM 8:19 PM
Waning Gibbous, 92% visible
Pressure 30.02 in
Visibility 3.0 miles
Clouds Clear
Dew Point 59 °F
Humidity 96%
Rainfall in
Snow Depth Not available.
UV 0 out of 12
Pollen 10.50 out of 12
Air Quality Not available.
Flu Activity Not available.
SPECI KPLN 010211Z AUTO 00000KT 3SM BR CLR 17/17 A3002 RMK AO2 T01720167
Pressure 30.02 in
Visibility 3.0 miles
Clouds Clear
Dew Point 59 °F
Humidity 96%
Rainfall in
Snow Depth Not available.
UV 0 out of 12
Pollen 10.50 out of 12
Air Quality Not available.
Flu Activity Not available.
SPECI KPLN 010211Z AUTO 00000KT 3SM BR CLR 17/17 A3002 RMK AO2 T01720167
Nowcast | as of 10:00 PM EDT on August 31, 2015

At 11 PM...clear. Temperature 69. Light winds. At 1 am...temperature 68. Light winds. At 3 am...areas of fog. Temperature 67. Light winds. At 5 am...clear. Areas of fog. Temperature 66. Southwest winds 5 mph.

×

10-Day Weather Forecast

×

Almanac

Astronomy

Aug. 31, 2015 Rise Set
Actual Time
Civil Twilight
Nautical Twilight
Astronomical Twilight
Moon
Length of Visible Light
Length of Day
Tomorrow will be .
, % of the Moon is Illuminated

Today's Extremes

State Highs State Lows

Community

WunderPhotos

Upload Photos

1,851,459 photos uploaded!

WunderBlogs® & News

Nearby

Air Quality

  Air Quality AQ Index Pollutant
Not available.

Snow Depth

Station Depth Elevation

Earthquake Activity

City Distance Mag. Time & Date
Minimum magnitude displayed is 2.5.

Coastal Water Temperatures

Place Temperature

Stations

Nearby Weather Stations

Station Location Temp. Windchill Dew Point Humidity Wind Precip. Elev Updated Type